Time;durP1;ratioP1;P1;durP2;ratioP2;P2;SDS_P1;SDS_P2;PMS_P1;PMS_P2;Temp;Humidity;BMP_temperature;BMP_pressure;BME280_temperature;BME280_humidity;BME280_pressure;Samples;Min_cycle;Max_cycle;Signal;HPM_P1;HPM_P2
2021/03/16 00:00:17;;;;;;;0.60;0.40;;;20.10;46.10;;;;;;6195895;28;20485;-68
2021/03/16 00:03:18;;;;;;;0.88;0.38;;;20.10;46.80;;;;;;6195734;28;20456;-68
2021/03/16 00:06:19;;;;;;;0.50;0.40;;;20.10;46.10;;;;;;6195492;28;20045;-68
2021/03/16 00:09:19;;;;;;;0.30;0.30;;;20.10;46.10;;;;;;6193126;28;20497;-68
2021/03/16 00:12:20;;;;;;;0.20;0.20;;;20.10;46.20;;;;;;6195358;28;20109;-68
2021/03/16 00:15:21;;;;;;;0.45;0.30;;;20.10;46.20;;;;;;6195264;28;20045;-68
2021/03/16 00:18:21;;;;;;;0.20;0.20;;;20.10;46.00;;;;;;6195056;28;20081;-68
2021/03/16 00:21:22;;;;;;;0.30;0.30;;;20.10;45.90;;;;;;6195203;28;20030;-68
2021/03/16 00:24:23;;;;;;;0.38;0.38;;;20.10;46.00;;;;;;6195318;28;20103;-68
2021/03/16 00:27:23;;;;;;;0.25;0.25;;;20.00;45.90;;;;;;6203214;28;20481;-68
2021/03/16 00:30:24;;;;;;;0.30;0.20;;;20.00;45.80;;;;;;6211965;28;20057;-68
2021/03/16 00:33:25;;;;;;;0.17;0.17;;;20.00;45.80;;;;;;6215618;28;20026;-68
2021/03/16 00:36:25;;;;;;;0.32;0.30;;;20.00;45.90;;;;;;6204372;28;20136;-68
2021/03/16 00:39:26;;;;;;;0.45;0.30;;;20.00;45.80;;;;;;6195098;28;20716;-68
2021/03/16 00:42:26;;;;;;;0.40;0.30;;;20.00;45.90;;;;;;6213467;28;20108;-68
2021/03/16 00:45:27;;;;;;;0.73;0.40;;;20.00;45.80;;;;;;6215736;28;20061;-68
2021/03/16 00:48:27;;;;;;;1.17;0.50;;;20.00;45.80;;;;;;6195268;28;20354;-68
2021/03/16 00:51:29;;;;;;;0.20;0.20;;;20.00;45.70;;;;;;6195084;28;20499;-68
2021/03/16 00:54:29;;;;;;;0.98;0.30;;;20.00;45.90;;;;;;6195245;28;20030;-68
2021/03/16 00:57:30;;;;;;;0.43;0.30;;;20.00;45.80;;;;;;6194819;28;20046;-68
2021/03/16 01:00:31;;;;;;;0.40;0.30;;;20.00;45.90;;;;;;6194720;28;20029;-68
2021/03/16 01:03:31;;;;;;;0.57;0.40;;;20.00;45.80;;;;;;6197236;28;20023;-68
2021/03/16 01:06:32;;;;;;;0.25;0.20;;;20.00;45.80;;;;;;6199610;28;20526;-68
2021/03/16 01:09:32;;;;;;;0.45;0.28;;;20.00;45.80;;;;;;6199572;28;20050;-68
2021/03/16 01:12:34;;;;;;;0.80;0.50;;;20.00;45.70;;;;;;6199685;28;20065;-68
2021/03/16 01:15:35;;;;;;;0.65;0.30;;;19.90;45.80;;;;;;6210248;28;20376;-68
2021/03/16 01:18:35;;;;;;;0.75;0.47;;;19.90;45.90;;;;;;6199541;28;20081;-68
2021/03/16 01:21:36;;;;;;;0.25;0.25;;;19.90;45.80;;;;;;6198884;28;20394;-68
2021/03/16 01:24:36;;;;;;;0.20;0.20;;;19.90;45.80;;;;;;6199250;28;20061;-68
2021/03/16 01:27:37;;;;;;;0.45;0.30;;;19.90;45.80;;;;;;6199064;28;20053;-68
2021/03/16 01:30:38;;;;;;;0.30;0.30;;;19.90;45.90;;;;;;6199192;28;20094;-68
2021/03/16 01:33:38;;;;;;;0.20;0.20;;;19.90;45.80;;;;;;6199079;28;20121;-68
2021/03/16 01:36:39;;;;;;;0.30;0.30;;;19.90;45.80;;;;;;6198944;28;20074;-68
2021/03/16 01:39:39;;;;;;;0.35;0.28;;;19.90;45.80;;;;;;6198477;28;20027;-68
2021/03/16 01:42:41;;;;;;;0.30;0.30;;;19.90;45.80;;;;;;6209931;28;20416;-68
2021/03/16 01:45:43;;;;;;;0.50;0.40;;;19.90;45.80;;;;;;6223356;28;20026;-68
2021/03/16 01:48:44;;;;;;;0.57;0.30;;;19.90;45.80;;;;;;6202172;28;20038;-68
2021/03/16 01:51:44;;;;;;;1.23;0.40;;;19.90;45.80;;;;;;6198536;28;20034;-68
2021/03/16 01:54:45;;;;;;;0.35;0.35;;;19.90;45.80;;;;;;6198584;28;20027;-68
2021/03/16 01:57:47;;;;;;;0.50;0.30;;;19.90;45.80;;;;;;6201590;28;20049;-68
2021/03/16 02:00:48;;;;;;;0.20;0.20;;;19.90;45.80;;;;;;6222873;28;20034;-68
2021/03/16 02:03:49;;;;;;;0.40;0.30;;;19.90;45.80;;;;;;6203447;28;20027;-68
2021/03/16 02:06:52;;;;;;;0.55;0.30;;;19.90;45.70;;;;;;6198410;28;20161;-68
2021/03/16 02:10:05;;;;;;;0.40;0.30;;;19.90;45.60;;;;;;6198393;28;20019;-68
2021/03/16 02:13:19;;;;;;;0.35;0.20;;;19.90;45.80;;;;;;6197493;28;20393;-68
2021/03/16 02:16:36;;;;;;;0.75;0.40;;;19.90;45.60;;;;;;6197536;28;20089;-68
2021/03/16 02:19:55;;;;;;;0.40;0.28;;;19.90;45.70;;;;;;6197601;28;20045;-68
2021/03/16 02:22:57;;;;;;;0.30;0.30;;;19.90;45.80;;;;;;6197813;28;20181;-68
2021/03/16 02:26:15;;;;;;;0.85;0.50;;;19.90;45.70;;;;;;6198074;28;20026;-68
2021/03/16 02:29:21;;;;;;;0.30;0.20;;;19.90;45.90;;;;;;6197797;28;20260;-68
2021/03/16 02:32:26;;;;;;;0.60;0.30;;;19.90;45.70;;;;;;6197746;28;20038;-68
2021/03/16 02:35:27;;;;;;;0.77;0.30;;;19.90;45.70;;;;;;6197447;28;20019;-68
2021/03/16 02:38:32;;;;;;;0.35;0.30;;;19.90;45.70;;;;;;6197541;28;20464;-68
2021/03/16 02:41:35;;;;;;;0.88;0.40;;;19.90;45.60;;;;;;6197710;28;20027;-68
2021/03/16 02:44:37;;;;;;;0.38;0.30;;;19.90;45.80;;;;;;6197550;28;20141;-68
2021/03/16 02:47:40;;;;;;;0.35;0.30;;;19.90;45.80;;;;;;6209714;28;20022;-68
2021/03/16 02:50:44;;;;;;;0.60;0.47;;;19.90;45.80;;;;;;6197330;28;20034;-68
2021/03/16 02:53:45;;;;;;;0.20;0.20;;;19.90;45.80;;;;;;6197090;28;20584;-68
2021/03/16 02:56:48;;;;;;;0.40;0.30;;;19.90;45.50;;;;;;6197301;28;20038;-68
2021/03/16 02:59:51;;;;;;;0.52;0.43;;;19.90;45.50;;;;;;6197104;28;20039;-68
2021/03/16 03:02:53;;;;;;;0.70;0.30;;;19.90;45.60;;;;;;6197071;28;20500;-68
2021/03/16 03:05:55;;;;;;;0.40;0.30;;;19.90;45.60;;;;;;6197087;28;20023;-68
2021/03/16 03:08:55;;;;;;;0.43;0.20;;;19.90;45.50;;;;;;6196842;28;20026;-68
2021/03/16 03:11:56;;;;;;;0.22;0.20;;;19.90;45.70;;;;;;6196722;28;20061;-68
2021/03/16 03:14:56;;;;;;;1.40;0.30;;;19.90;45.60;;;;;;6196689;28;20085;-68
2021/03/16 03:17:57;;;;;;;1.08;0.40;;;19.90;45.40;;;;;;6196469;28;20836;-68
2021/03/16 03:21:18;;;;;;;0.75;0.50;;;19.90;45.50;;;;;;6197002;28;20030;-69
2021/03/16 03:24:28;;;;;;;0.30;0.30;;;19.90;45.50;;;;;;6196077;28;20061;-68
2021/03/16 03:27:33;;;;;;;0.43;0.32;;;19.90;45.60;;;;;;6195622;28;20436;-68
2021/03/16 03:30:33;;;;;;;0.65;0.45;;;19.90;45.50;;;;;;6204873;28;20396;-68
2021/03/16 03:33:39;;;;;;;0.98;0.50;;;19.90;45.60;;;;;;6218264;28;20039;-68
2021/03/16 03:36:40;;;;;;;;;;;19.90;45.50;;;;;;6196749;28;20031;-68
2021/03/16 03:39:41;;;;;;;0.20;0.20;;;19.90;45.50;;;;;;6196319;28;20344;-68
2021/03/16 03:42:43;;;;;;;0.40;0.40;;;19.90;45.50;;;;;;6196273;28;20030;-68
2021/03/16 03:45:45;;;;;;;0.73;0.30;;;19.90;45.60;;;;;;6192204;28;20045;-68
2021/03/16 03:48:46;;;;;;;0.43;0.30;;;19.90;45.60;;;;;;6196126;28;20019;-68
2021/03/16 03:51:49;;;;;;;0.20;0.20;;;19.80;45.30;;;;;;6216165;28;20091;-68
2021/03/16 03:54:50;;;;;;;0.40;0.40;;;19.90;45.60;;;;;;6210322;28;20026;-68
2021/03/16 03:57:52;;;;;;;0.85;0.40;;;19.90;45.40;;;;;;6195722;28;20031;-68
2021/03/16 04:00:53;;;;;;;0.60;0.45;;;19.90;45.50;;;;;;6195846;28;20034;-68
2021/03/16 04:03:55;;;;;;;0.40;0.38;;;19.90;45.50;;;;;;6195388;28;20033;-68
2021/03/16 04:06:57;;;;;;;0.50;0.40;;;19.90;45.70;;;;;;6195872;28;20452;-68
2021/03/16 04:09:58;;;;;;;0.65;0.30;;;19.90;45.40;;;;;;6195685;28;20393;-68
2021/03/16 04:12:58;;;;;;;0.77;0.47;;;19.90;45.50;;;;;;6195693;28;20058;-68
2021/03/16 04:16:01;;;;;;;0.70;0.38;;;19.90;45.50;;;;;;6195245;28;20093;-68
2021/03/16 04:19:02;;;;;;;0.60;0.40;;;19.90;45.50;;;;;;6195112;28;20036;-67
2021/03/16 04:22:02;;;;;;;0.75;0.40;;;19.80;45.30;;;;;;6194995;28;20035;-68
2021/03/16 04:25:04;;;;;;;0.43;0.30;;;19.90;45.70;;;;;;6199513;28;20105;-68
2021/03/16 04:28:05;;;;;;;0.75;0.40;;;19.90;45.50;;;;;;6219673;28;20396;-68
2021/03/16 04:31:05;;;;;;;0.32;0.30;;;19.80;45.30;;;;;;6203868;28;20049;-68
2021/03/16 04:34:06;;;;;;;0.93;0.50;;;19.80;45.40;;;;;;6200264;28;20033;-68
2021/03/16 04:37:06;;;;;;;1.17;0.30;;;19.90;45.40;;;;;;6195934;28;20497;-68
2021/03/16 04:40:08;;;;;;;0.90;0.40;;;19.80;45.40;;;;;;6194683;28;20065;-68
2021/03/16 04:43:10;;;;;;;0.40;0.30;;;19.80;45.60;;;;;;6195116;28;20500;-68
2021/03/16 04:46:11;;;;;;;0.93;0.50;;;19.90;45.60;;;;;;6195340;28;20030;-68
2021/03/16 04:49:12;;;;;;;0.32;0.32;;;19.90;45.40;;;;;;6195762;28;20045;-68
2021/03/16 04:52:13;;;;;;;0.98;0.52;;;19.90;45.50;;;;;;6203568;28;20018;-68
2021/03/16 04:55:13;;;;;;;0.30;0.30;;;19.80;45.20;;;;;;6216360;28;20038;-68
2021/03/16 04:58:14;;;;;;;0.80;0.30;;;19.80;45.10;;;;;;6194520;28;20038;-68
2021/03/16 05:01:16;;;;;;;0.93;0.43;;;19.90;45.30;;;;;;6194702;28;20061;-68
2021/03/16 05:04:17;;;;;;;0.75;0.30;;;19.80;45.20;;;;;;6194979;28;20485;-68
2021/03/16 05:07:17;;;;;;;0.35;0.30;;;19.80;45.30;;;;;;6192827;28;20046;-68
2021/03/16 05:10:18;;;;;;;0.32;0.30;;;19.80;45.30;;;;;;6214288;28;20026;-68
2021/03/16 05:13:20;;;;;;;0.63;0.45;;;19.80;45.40;;;;;;6194749;28;20381;-68
2021/03/16 05:16:21;;;;;;;0.88;0.47;;;19.80;45.30;;;;;;6204027;28;20047;-68
2021/03/16 05:19:21;;;;;;;0.65;0.38;;;19.90;45.30;;;;;;6195040;28;20122;-68
2021/03/16 05:22:22;;;;;;;1.30;0.30;;;19.80;45.20;;;;;;6194891;28;20034;-68
2021/03/16 05:25:22;;;;;;;0.80;0.40;;;19.90;45.20;;;;;;6194845;28;20030;-68
2021/03/16 05:28:23;;;;;;;1.13;0.50;;;19.90;45.30;;;;;;6194838;28;20022;-68
2021/03/16 05:31:23;;;;;;;0.30;0.30;;;19.90;45.40;;;;;;6193207;28;20026;-68
2021/03/16 05:34:24;;;;;;;0.90;0.43;;;19.90;45.30;;;;;;6194237;28;20516;-68
2021/03/16 05:37:24;;;;;;;0.45;0.40;;;19.90;45.10;;;;;;6197255;28;20064;-68
2021/03/16 05:40:28;;;;;;;0.68;0.50;;;19.90;45.10;;;;;;6194438;28;20034;-68
2021/03/16 05:43:30;;;;;;;1.10;0.40;;;19.90;45.00;;;;;;6194313;28;20035;-68
2021/03/16 05:46:31;;;;;;;0.63;0.40;;;19.90;45.80;;;;;;6194167;28;20088;-68
2021/03/16 05:49:33;;;;;;;1.15;0.40;;;19.90;45.00;;;;;;6196780;28;20041;-68
2021/03/16 05:52:34;;;;;;;0.85;0.30;;;19.90;45.10;;;;;;6196317;28;20390;-68
2021/03/16 05:55:35;;;;;;;1.13;0.40;;;19.90;45.00;;;;;;6198718;28;20034;-69
2021/03/16 05:58:36;;;;;;;1.08;0.50;;;19.90;45.00;;;;;;6198748;28;20030;-68
2021/03/16 06:01:36;;;;;;;0.60;0.50;;;19.90;45.10;;;;;;6198660;28;20030;-68
2021/03/16 06:04:43;;;;;;;1.33;0.50;;;19.90;45.00;;;;;;6198288;28;20031;-68
2021/03/16 06:07:48;;;;;;;0.50;0.30;;;19.90;45.10;;;;;;6207866;28;20026;-68
2021/03/16 06:10:49;;;;;;;;;;;19.90;45.00;;;;;;6198304;28;20385;-68
2021/03/16 06:14:00;;;;;;;1.10;0.50;;;19.90;45.20;;;;;;6198316;28;19956;-68
2021/03/16 06:17:01;;;;;;;0.70;0.52;;;19.90;45.30;;;;;;6197702;28;20077;-68
2021/03/16 06:20:02;;;;;;;0.77;0.40;;;19.90;45.10;;;;;;6197919;28;20374;-68
2021/03/16 06:23:03;;;;;;;2.40;0.50;;;19.90;45.20;;;;;;6197649;28;20033;-68
2021/03/16 06:26:12;;;;;;;0.38;0.30;;;19.90;45.30;;;;;;6196946;28;20022;-67
2021/03/16 06:29:12;;;;;;;1.42;0.50;;;19.90;45.20;;;;;;6195313;28;20436;-67
2021/03/16 06:32:13;;;;;;;5.30;0.70;;;20.00;46.00;;;;;;6199625;28;20037;-68
2021/03/16 06:35:14;;;;;;;6.35;0.88;;;20.00;45.20;;;;;;6196908;28;20026;-67
2021/03/16 06:38:18;;;;;;;3.28;0.73;;;20.00;44.70;;;;;;6196013;28;20441;-68
2021/03/16 06:41:20;;;;;;;3.72;0.90;;;20.00;44.80;;;;;;6202026;28;20076;-67
2021/03/16 06:44:23;;;;;;;3.03;0.88;;;20.10;45.00;;;;;;6211291;28;20033;-68
2021/03/16 06:47:23;;;;;;;2.88;0.60;;;20.10;46.10;;;;;;6215760;28;20018;-67
2021/03/16 06:50:28;;;;;;;2.47;0.55;;;20.20;45.80;;;;;;6221210;28;20409;-67
2021/03/16 06:53:29;;;;;;;4.68;0.50;;;20.20;45.30;;;;;;6220945;28;20061;-68
2021/03/16 06:56:29;;;;;;;4.95;0.75;;;20.20;45.90;;;;;;6220934;28;20049;-68
2021/03/16 06:59:32;;;;;;;1.95;0.60;;;20.30;45.80;;;;;;6213742;28;20089;-68
2021/03/16 07:02:32;;;;;;;0.85;0.55;;;20.50;45.60;;;;;;6192740;28;20038;-69
2021/03/16 07:05:33;;;;;;;3.53;0.70;;;20.60;45.70;;;;;;6198685;28;20041;-68
2021/03/16 07:08:34;;;;;;;0.75;0.52;;;20.50;45.10;;;;;;6195769;28;20383;-67
2021/03/16 07:11:36;;;;;;;1.05;0.60;;;20.50;44.80;;;;;;6197385;28;20450;-67
2021/03/16 07:14:37;;;;;;;1.75;0.50;;;20.50;44.80;;;;;;6197469;28;20421;-67
2021/03/16 07:17:39;;;;;;;1.92;0.70;;;20.50;44.90;;;;;;6212273;28;20416;-68
2021/03/16 07:20:41;;;;;;;1.05;0.50;;;20.50;44.90;;;;;;6221288;28;20044;-67
2021/03/16 07:23:46;;;;;;;0.88;0.43;;;20.50;44.90;;;;;;6198219;28;20029;-67
2021/03/16 07:26:47;;;;;;;1.60;0.70;;;20.50;44.90;;;;;;6197140;28;20057;-67
2021/03/16 07:29:49;;;;;;;0.40;0.40;;;20.50;44.90;;;;;;6196575;28;20026;-68
2021/03/16 07:32:50;;;;;;;0.80;0.47;;;20.50;44.80;;;;;;6197889;28;20027;-66
2021/03/16 07:35:50;;;;;;;1.65;0.60;;;20.50;44.80;;;;;;6197195;28;20816;-68
2021/03/16 07:38:53;;;;;;;0.90;0.68;;;20.50;44.80;;;;;;6195716;28;20038;-68
2021/03/16 07:41:54;;;;;;;1.98;0.75;;;20.60;45.00;;;;;;6200324;28;20076;-68
2021/03/16 07:44:55;;;;;;;1.35;0.50;;;20.60;45.20;;;;;;6193091;28;20034;-67
2021/03/16 07:47:56;;;;;;;3.42;0.70;;;20.60;45.10;;;;;;6193847;28;20034;-67
2021/03/16 07:51:07;;;;;;;3.10;0.90;;;20.60;44.70;;;;;;6193619;28;20027;-67
2021/03/16 07:54:08;;;;;;;0.75;0.50;;;20.60;44.90;;;;;;6198365;28;20018;-67
2021/03/16 07:57:08;;;;;;;1.38;0.80;;;20.60;44.80;;;;;;6203420;28;20081;-67
2021/03/16 08:00:09;;;;;;;2.47;0.70;;;20.60;44.80;;;;;;6202152;28;20096;-67
2021/03/16 08:03:10;;;;;;;1.25;0.65;;;20.60;44.70;;;;;;6218463;28;20064;-67
2021/03/16 08:06:24;;;;;;;1.25;0.50;;;20.60;44.80;;;;;;6204165;28;20022;-67
2021/03/16 08:09:25;;;;;;;1.63;0.65;;;20.60;44.80;;;;;;6198214;28;20076;-68
2021/03/16 08:12:30;;;;;;;0.75;0.55;;;20.60;44.80;;;;;;6218500;28;20493;-67
2021/03/16 08:15:45;;;;;;;1.23;0.70;;;20.60;44.80;;;;;;6217549;28;20034;-68
2021/03/16 08:18:45;;;;;;;1.58;0.82;;;20.70;44.70;;;;;;6198168;28;20031;-67
2021/03/16 08:21:55;;;;;;;1.40;0.60;;;20.60;44.60;;;;;;6193848;28;20042;-67
2021/03/16 08:25:16;;;;;;;1.60;0.77;;;20.70;44.80;;;;;;6211483;28;20450;-67
2021/03/16 08:28:17;;;;;;;6.03;0.60;;;20.70;44.80;;;;;;6212082;28;20028;-68
2021/03/16 08:31:18;;;;;;;4.15;1.08;;;20.70;44.60;;;;;;6218934;28;20029;-68
2021/03/16 08:34:21;;;;;;;2.75;0.73;;;20.70;44.50;;;;;;6194009;28;20041;-68
2021/03/16 08:37:24;;;;;;;0.95;0.70;;;20.80;44.40;;;;;;6201238;28;20103;-68
2021/03/16 08:40:25;;;;;;;1.42;0.60;;;20.80;44.30;;;;;;6218954;28;20515;-68
2021/03/16 08:43:26;;;;;;;2.15;0.77;;;20.80;44.20;;;;;;6218776;28;20030;-68
2021/03/16 08:46:31;;;;;;;0.60;0.50;;;20.80;44.20;;;;;;6214972;28;20030;-68
2021/03/16 08:49:39;;;;;;;3.83;0.80;;;20.80;44.10;;;;;;6194640;28;20034;-68
2021/03/16 08:52:39;;;;;;;0.82;0.60;;;20.80;44.20;;;;;;6200492;28;20330;-68
2021/03/16 08:55:48;;;;;;;1.75;0.68;;;20.80;44.10;;;;;;6212514;28;20023;-68
2021/03/16 08:58:50;;;;;;;1.20;0.60;;;20.90;44.20;;;;;;6205312;28;20393;-68
2021/03/16 09:01:51;;;;;;;1.40;0.65;;;20.90;44.10;;;;;;6194630;28;20037;-68
2021/03/16 09:04:52;;;;;;;0.93;0.60;;;20.90;44.00;;;;;;6194466;28;20429;-68
2021/03/16 09:07:56;;;;;;;0.75;0.50;;;20.90;44.10;;;;;;6194961;28;20144;-68
2021/03/16 09:10:57;;;;;;;0.77;0.60;;;20.90;44.00;;;;;;6202639;28;20202;-68
2021/03/16 09:14:14;;;;;;;1.08;0.73;;;20.90;44.00;;;;;;6193619;28;20362;-68
2021/03/16 09:17:16;;;;;;;2.05;0.68;;;20.90;44.20;;;;;;6187228;28;20049;-68
2021/03/16 09:20:30;;;;;;;1.25;0.60;;;20.90;44.20;;;;;;6197779;28;20053;-69
2021/03/16 09:23:30;;;;;;;1.77;0.60;;;20.90;44.10;;;;;;6194091;28;20026;-68
2021/03/16 09:26:31;;;;;;;1.55;0.60;;;20.90;44.30;;;;;;6198959;28;20444;-68
2021/03/16 09:29:35;;;;;;;1.48;0.77;;;20.90;44.30;;;;;;6213143;28;20026;-67
2021/03/16 09:32:43;;;;;;;1.35;0.68;;;20.90;44.40;;;;;;6211603;28;20076;-67
2021/03/16 09:35:44;;;;;;;0.90;0.60;;;20.80;44.30;;;;;;6219927;28;20033;-68
2021/03/16 09:38:55;;;;;;;1.38;0.60;;;20.90;44.40;;;;;;6197950;28;20057;-68
2021/03/16 09:41:59;;;;;;;1.73;0.60;;;20.90;44.40;;;;;;6199024;28;20129;-68
2021/03/16 09:45:03;;;;;;;1.00;0.60;;;20.90;44.40;;;;;;6197853;28;20027;-68
2021/03/16 09:48:03;;;;;;;0.82;0.60;;;20.90;44.40;;;;;;6199081;28;20038;-67
2021/03/16 09:51:21;;;;;;;1.40;0.60;;;20.90;44.50;;;;;;6210554;28;20034;-67
2021/03/16 09:54:22;;;;;;;0.68;0.47;;;20.90;44.50;;;;;;6210666;28;20050;-68
2021/03/16 09:57:31;;;;;;;0.85;0.70;;;20.80;44.30;;;;;;6223164;28;20502;-68
2021/03/16 10:00:31;;;;;;;4.13;0.75;;;20.80;44.40;;;;;;6218759;28;20057;-68
2021/03/16 10:03:32;;;;;;;1.13;0.70;;;20.80;44.40;;;;;;6198212;28;20085;-68
2021/03/16 10:06:42;;;;;;;1.50;0.60;;;20.90;44.50;;;;;;6198914;28;20068;-68
2021/03/16 10:09:44;;;;;;;2.22;0.80;;;20.90;44.50;;;;;;6198909;28;20022;-68
2021/03/16 10:12:54;;;;;;;1.15;0.50;;;20.90;44.50;;;;;;6198117;28;20120;-67
2021/03/16 10:15:55;;;;;;;1.52;0.50;;;20.90;44.50;;;;;;6198613;28;20046;-67
2021/03/16 10:18:56;;;;;;;0.63;0.50;;;20.90;44.70;;;;;;6222550;28;20080;-68
2021/03/16 10:21:57;;;;;;;3.22;0.70;;;20.90;44.70;;;;;;6210028;28;20140;-68
2021/03/16 10:25:00;;;;;;;0.80;0.60;;;20.80;44.60;;;;;;6207672;28;20022;-68
2021/03/16 10:28:05;;;;;;;1.55;0.60;;;20.80;44.70;;;;;;6191990;28;20378;-67
2021/03/16 10:31:13;;;;;;;2.47;0.90;;;20.80;44.70;;;;;;6194105;28;20026;-68
2021/03/16 10:34:13;;;;;;;1.13;0.55;;;20.80;44.80;;;;;;6212092;28;20540;-68
2021/03/16 10:37:22;;;;;;;0.60;0.50;;;20.80;44.70;;;;;;6207292;28;20113;-68
2021/03/16 10:40:22;;;;;;;2.00;0.50;;;20.80;44.80;;;;;;6209575;28;20057;-68
2021/03/16 10:43:23;;;;;;;0.85;0.52;;;20.80;44.80;;;;;;6198051;28;20022;-68
2021/03/16 10:46:24;;;;;;;0.98;0.60;;;20.80;44.80;;;;;;6195765;28;20482;-68
2021/03/16 10:49:24;;;;;;;0.70;0.43;;;20.80;44.80;;;;;;6200292;28;20049;-68
2021/03/16 10:52:25;;;;;;;1.33;0.50;;;20.80;44.80;;;;;;6214756;28;20097;-68
2021/03/16 10:55:25;;;;;;;0.70;0.50;;;20.80;44.80;;;;;;6209109;28;20544;-68
2021/03/16 10:58:26;;;;;;;1.15;0.60;;;20.80;44.80;;;;;;6206915;28;20077;-68
2021/03/16 11:01:26;;;;;;;1.10;0.60;;;20.80;44.80;;;;;;6204874;28;20381;-68
2021/03/16 11:04:27;;;;;;;0.95;0.55;;;20.80;44.80;;;;;;6199222;28;20039;-66
2021/03/16 11:07:27;;;;;;;0.98;0.60;;;20.80;44.70;;;;;;6219995;28;20068;-68
2021/03/16 11:10:28;;;;;;;3.70;0.60;;;20.80;44.70;;;;;;6204225;28;20060;-69
2021/03/16 11:13:29;;;;;;;0.98;0.60;;;20.80;44.30;;;;;;6205464;28;20032;-68
2021/03/16 11:16:29;;;;;;;0.98;0.65;;;20.80;44.30;;;;;;6215375;28;20054;-68
2021/03/16 11:19:30;;;;;;;1.90;0.68;;;20.70;44.30;;;;;;6221774;28;20026;-69
2021/03/16 11:22:31;;;;;;;1.13;0.63;;;20.90;44.50;;;;;;6205800;28;20049;-69
2021/03/16 11:25:31;;;;;;;0.98;0.57;;;20.90;44.70;;;;;;6196812;28;20054;-69
2021/03/16 11:28:32;;;;;;;0.82;0.50;;;20.90;44.50;;;;;;6212150;28;20033;-68
2021/03/16 11:31:32;;;;;;;1.15;0.60;;;20.90;44.60;;;;;;6221123;28;20034;-67
2021/03/16 11:34:34;;;;;;;1.00;0.50;;;20.90;44.50;;;;;;6220793;28;20030;-68
2021/03/16 11:37:35;;;;;;;3.42;0.90;;;20.90;44.60;;;;;;6195169;28;20042;-69
2021/03/16 11:40:36;;;;;;;0.57;0.40;;;20.90;44.50;;;;;;6217877;28;20030;-69
2021/03/16 11:43:38;;;;;;;1.30;0.70;;;20.90;45.20;;;;;;6199053;28;20037;-67
2021/03/16 11:46:38;;;;;;;1.23;0.50;;;20.90;44.50;;;;;;6206367;28;20751;-69
2021/03/16 11:49:39;;;;;;;0.98;0.60;;;20.90;44.50;;;;;;6202527;28;20062;-68
2021/03/16 11:52:39;;;;;;;1.40;0.70;;;20.90;44.60;;;;;;6194857;28;20048;-68
2021/03/16 11:55:40;;;;;;;1.23;0.45;;;20.90;44.50;;;;;;6206183;28;20388;-68
2021/03/16 11:58:41;;;;;;;0.80;0.68;;;20.90;44.40;;;;;;6198184;28;20081;-68
2021/03/16 12:01:41;;;;;;;1.05;0.65;;;20.90;44.50;;;;;;6194361;28;20026;-68
2021/03/16 12:04:42;;;;;;;1.48;0.60;;;20.90;44.40;;;;;;6203347;28;20084;-68
2021/03/16 12:07:42;;;;;;;1.05;0.68;;;20.90;44.50;;;;;;6204953;28;20109;-68
2021/03/16 12:10:43;;;;;;;1.27;0.60;;;20.90;44.50;;;;;;6200686;28;20429;-68
2021/03/16 12:13:44;;;;;;;1.88;0.88;;;20.90;44.40;;;;;;6218668;28;20120;-69
2021/03/16 12:16:44;;;;;;;1.13;0.70;;;20.90;44.30;;;;;;6213745;28;20057;-68
2021/03/16 12:19:45;;;;;;;3.90;0.60;;;20.90;44.70;;;;;;6195858;28;20031;-68
2021/03/16 12:22:45;;;;;;;1.95;0.80;;;21.00;44.50;;;;;;6195344;28;20038;-68
2021/03/16 12:25:51;;;;;;;1.00;0.70;;;20.90;44.50;;;;;;6195812;28;20049;-68
2021/03/16 12:28:51;;;;;;;6.25;0.57;;;21.00;44.40;;;;;;6200065;28;20023;-67
2021/03/16 12:31:52;;;;;;;2.97;0.80;;;20.90;44.50;;;;;;6207741;28;20022;-67
2021/03/16 12:34:53;;;;;;;4.50;0.90;;;21.00;44.60;;;;;;6195728;28;20482;-68
2021/03/16 12:37:53;;;;;;;1.40;0.65;;;21.10;44.60;;;;;;6194748;28;20030;-68
2021/03/16 12:40:54;;;;;;;1.65;0.95;;;21.00;44.50;;;;;;6197955;28;20030;-68
2021/03/16 12:43:54;;;;;;;0.90;0.60;;;21.00;44.50;;;;;;6219561;28;20026;-68
2021/03/16 12:46:55;;;;;;;1.45;0.80;;;21.00;44.40;;;;;;6218780;28;20061;-68
2021/03/16 12:49:56;;;;;;;4.85;0.80;;;21.00;44.50;;;;;;6219294;28;20033;-69
2021/03/16 12:52:56;;;;;;;2.50;0.98;;;21.00;44.60;;;;;;6218421;28;20022;-72
2021/03/16 12:55:57;;;;;;;3.20;0.60;;;21.10;44.80;;;;;;6219549;28;20432;-69
2021/03/16 12:58:58;;;;;;;1.77;0.80;;;21.10;44.70;;;;;;6222764;28;20294;-68
2021/03/16 13:01:58;;;;;;;2.88;0.93;;;21.00;44.50;;;;;;6224853;28;20708;-68
2021/03/16 13:04:59;;;;;;;1.33;0.82;;;21.00;44.50;;;;;;6215091;28;20065;-68
2021/03/16 13:07:59;;;;;;;1.02;0.70;;;21.00;44.50;;;;;;6213586;28;20486;-68
2021/03/16 13:11:00;;;;;;;1.83;0.50;;;21.00;44.60;;;;;;6199961;28;20394;-68
2021/03/16 13:14:00;;;;;;;1.77;0.77;;;21.00;44.80;;;;;;6197820;28;20072;-68
2021/03/16 13:17:01;;;;;;;1.67;0.70;;;21.00;44.80;;;;;;6198962;28;20065;-67
2021/03/16 13:20:03;;;;;;;1.20;0.70;;;21.10;44.60;;;;;;6199573;28;20030;-68
2021/03/16 13:23:04;;;;;;;4.45;1.25;;;21.00;44.50;;;;;;6197546;28;20022;-69
2021/03/16 13:26:05;;;;;;;2.65;0.90;;;21.00;44.50;;;;;;6199439;28;20564;-67
2021/03/16 13:29:05;;;;;;;6.43;0.90;;;21.10;44.60;;;;;;6197309;28;20033;-68
2021/03/16 13:32:08;;;;;;;1.42;0.90;;;21.00;44.60;;;;;;6215974;28;20022;-68
2021/03/16 13:35:09;;;;;;;0.85;0.70;;;21.00;44.60;;;;;;6223354;28;20386;-67
2021/03/16 13:38:12;;;;;;;1.90;0.70;;;21.00;44.60;;;;;;6223247;28;20057;-68
2021/03/16 13:41:12;;;;;;;1.48;0.85;;;21.00;44.50;;;;;;6223357;28;20108;-68
2021/03/16 13:44:13;;;;;;;1.73;1.10;;;21.00;44.50;;;;;;6207519;28;20068;-67
2021/03/16 13:47:13;;;;;;;1.40;0.77;;;21.00;44.50;;;;;;6199259;28;20444;-68
2021/03/16 13:50:15;;;;;;;0.85;0.80;;;21.00;44.60;;;;;;6199883;28;20026;-68
2021/03/16 13:53:16;;;;;;;1.02;0.80;;;21.00;44.50;;;;;;6223468;28;20026;-68
2021/03/16 13:56:16;;;;;;;1.50;0.90;;;21.00;44.50;;;;;;6222788;28;20551;-68
2021/03/16 13:59:17;;;;;;;1.23;0.80;;;21.00;44.50;;;;;;6212916;28;20484;-67
2021/03/16 14:02:17;;;;;;;2.25;1.00;;;21.00;44.50;;;;;;6199340;28;20026;-67
2021/03/16 14:05:19;;;;;;;0.75;0.60;;;21.00;44.40;;;;;;6199158;28;20489;-68
2021/03/16 14:08:19;;;;;;;1.33;0.70;;;21.00;44.50;;;;;;6204598;28;20397;-67
2021/03/16 14:11:20;;;;;;;1.58;0.82;;;21.00;44.40;;;;;;6222732;28;20057;-68
2021/03/16 14:14:20;;;;;;;1.67;0.77;;;21.00;44.50;;;;;;6210873;28;20025;-67
2021/03/16 14:17:21;;;;;;;1.10;0.80;;;21.00;44.40;;;;;;6222514;28;20050;-68
2021/03/16 14:20:22;;;;;;;1.20;0.70;;;21.00;44.40;;;;;;6216243;28;20022;-68
2021/03/16 14:23:23;;;;;;;1.45;0.73;;;21.00;44.40;;;;;;6201510;28;20519;-67
2021/03/16 14:26:23;;;;;;;0.90;0.60;;;21.00;44.40;;;;;;6222589;28;20083;-68
2021/03/16 14:29:25;;;;;;;1.20;0.60;;;21.00;44.40;;;;;;6222532;28;20029;-67
2021/03/16 14:32:25;;;;;;;1.58;0.80;;;21.00;44.40;;;;;;6222318;28;20477;-68
2021/03/16 14:35:26;;;;;;;0.80;0.52;;;21.00;44.40;;;;;;6217312;28;20026;-67
2021/03/16 14:38:27;;;;;;;0.98;0.80;;;21.00;44.40;;;;;;6221865;28;20033;-68
2021/03/16 14:41:28;;;;;;;0.82;0.70;;;21.00;44.30;;;;;;6222532;28;20435;-67
2021/03/16 14:44:28;;;;;;;2.47;0.80;;;21.10;44.40;;;;;;6221407;28;20053;-68
2021/03/16 14:47:29;;;;;;;4.30;0.75;;;21.00;44.20;;;;;;6221729;28;20030;-68
2021/03/16 14:50:29;;;;;;;1.17;0.98;;;21.00;44.30;;;;;;6222257;28;20104;-68
2021/03/16 14:53:30;;;;;;;3.33;0.82;;;21.10;44.30;;;;;;6214105;28;20026;-69
2021/03/16 14:56:30;;;;;;;2.58;0.70;;;21.00;44.20;;;;;;6198301;28;20084;-68
2021/03/16 14:59:31;;;;;;;3.58;0.95;;;21.00;44.30;;;;;;6219935;28;20065;-68
2021/03/16 15:02:31;;;;;;;1.27;0.80;;;21.00;44.30;;;;;;6207746;28;20027;-68
2021/03/16 15:05:32;;;;;;;1.02;0.90;;;21.10;44.30;;;;;;6182833;28;20066;-68
2021/03/16 15:08:32;;;;;;;2.75;0.77;;;21.00;44.30;;;;;;6196288;28;20385;-68
2021/03/16 15:11:33;;;;;;;1.65;0.93;;;21.10;44.40;;;;;;6218986;28;20366;-68
2021/03/16 15:14:34;;;;;;;0.93;0.70;;;21.10;44.40;;;;;;6221171;28;20026;-68
2021/03/16 15:17:37;;;;;;;1.27;0.80;;;21.00;44.30;;;;;;6203421;28;20058;-69
2021/03/16 15:20:38;;;;;;;1.33;0.73;;;21.00;44.30;;;;;;6196726;28;20034;-68
2021/03/16 15:23:38;;;;;;;2.03;1.00;;;21.10;44.50;;;;;;6200408;28;20123;-69
2021/03/16 15:26:39;;;;;;;0.90;0.75;;;21.00;44.40;;;;;;6206436;28;20044;-67
2021/03/16 15:29:40;;;;;;;1.95;0.90;;;21.10;44.50;;;;;;6199249;28;20042;-68
2021/03/16 15:32:40;;;;;;;1.73;0.88;;;21.00;44.40;;;;;;6220594;28;20026;-68
2021/03/16 15:35:41;;;;;;;0.70;0.60;;;21.10;45.10;;;;;;6220060;28;20052;-68
2021/03/16 15:38:42;;;;;;;1.13;0.80;;;21.00;44.50;;;;;;6219665;28;20032;-68
2021/03/16 15:41:43;;;;;;;1.35;0.73;;;21.10;44.50;;;;;;6220426;28;20093;-69
2021/03/16 15:44:43;;;;;;;1.42;0.73;;;21.10;44.50;;;;;;6221064;28;20513;-68
2021/03/16 15:47:44;;;;;;;5.47;0.80;;;21.10;44.50;;;;;;6202279;28;20066;-68